Time;durP1;ratioP1;P1;durP2;ratioP2;P2;SDS_P1;SDS_P2;PMS_P1;PMS_P2;Temp;Humidity;BMP_temperature;BMP_pressure;BME280_temperature;BME280_humidity;BME280_pressure;Samples;Min_cycle;Max_cycle;Signal;HPM_P1;HPM_P2
2022/01/02 06:00:35;;;;;;;7.77;4.47;;;5.10;99.90;;;;;;5801058;23;20273;-78
2022/01/02 06:03:02;;;;;;;6.80;3.88;;;5.00;99.90;;;;;;4937046;29;20303;-79
2022/01/02 06:05:29;;;;;;;8.25;4.50;;;4.90;99.90;;;;;;4934467;29;20054;-77
2022/01/02 06:07:56;;;;;;;7.97;4.30;;;4.90;99.90;;;;;;4934247;29;20046;-77
2022/01/02 06:10:24;;;;;;;8.30;4.45;;;4.90;99.90;;;;;;4934295;29;20413;-77
2022/01/02 06:12:51;;;;;;;9.35;4.82;;;4.90;99.90;;;;;;4934671;29;20048;-80
2022/01/02 06:15:18;;;;;;;7.72;4.25;;;4.90;99.90;;;;;;4934486;29;20513;-77
2022/01/02 06:17:46;;;;;;;8.32;4.50;;;4.80;99.90;;;;;;4934326;29;20404;-77
2022/01/02 06:20:16;;;;;;;7.25;4.32;;;4.70;99.90;;;;;;4934132;29;20453;-77
2022/01/02 06:22:43;;;;;;;8.90;4.80;;;4.70;99.90;;;;;;4933769;29;20404;-78
2022/01/02 06:25:10;;;;;;;6.57;4.15;;;4.70;99.90;;;;;;4933941;29;20484;-78
2022/01/02 06:27:39;;;;;;;7.00;4.10;;;4.70;99.90;;;;;;4934217;29;20056;-78
2022/01/02 06:30:08;;;;;;;7.13;3.72;;;4.70;99.90;;;;;;4933879;29;20051;-77
2022/01/02 06:32:35;;;;;;;6.20;3.72;;;4.80;99.90;;;;;;4934175;29;20119;-78
2022/01/02 06:35:03;;;;;;;7.00;3.92;;;4.90;99.90;;;;;;4934008;29;20051;-78
2022/01/02 06:37:31;;;;;;;8.55;4.32;;;4.90;99.90;;;;;;4926880;29;20054;-77
2022/01/02 06:39:58;;;;;;;8.15;4.70;;;5.00;99.90;;;;;;4933947;29;20442;-78
2022/01/02 06:42:25;;;;;;;6.63;4.00;;;5.00;99.90;;;;;;4933513;29;20050;-78
2022/01/02 06:44:52;;;;;;;7.90;4.57;;;5.00;99.90;;;;;;4933403;29;20553;-78
2022/01/02 06:47:19;;;;;;;7.97;4.85;;;5.10;99.90;;;;;;4933544;29;20051;-78
2022/01/02 06:49:46;;;;;;;8.35;4.72;;;5.10;99.90;;;;;;4933655;29;20048;-78
2022/01/02 06:52:15;;;;;;;7.68;4.15;;;5.10;99.90;;;;;;4933150;29;20523;-78
2022/01/02 06:54:42;;;;;;;6.85;3.83;;;5.10;99.90;;;;;;4933738;29;20079;-78
2022/01/02 06:57:09;;;;;;;6.93;3.83;;;5.10;99.90;;;;;;4933412;29;20052;-78
2022/01/02 06:59:36;;;;;;;6.72;3.78;;;5.20;99.90;;;;;;4933611;29;20130;-78
2022/01/02 07:02:03;;;;;;;6.53;3.70;;;5.20;99.90;;;;;;4933171;29;20533;-78
2022/01/02 07:04:30;;;;;;;6.45;3.53;;;5.20;99.90;;;;;;4931475;29;20513;-78
2022/01/02 07:06:57;;;;;;;7.40;4.18;;;5.20;99.90;;;;;;4932986;29;20044;-79
2022/01/02 07:09:27;;;;;;;8.27;4.80;;;5.30;99.90;;;;;;4932867;29;20115;-79
2022/01/02 07:11:54;;;;;;;7.15;4.30;;;5.30;99.90;;;;;;4933187;29;20044;-79
2022/01/02 07:14:23;;;;;;;6.03;3.58;;;5.20;99.90;;;;;;4933384;29;20142;-79
2022/01/02 07:16:50;;;;;;;6.32;3.55;;;5.20;99.90;;;;;;4933406;29;20044;-78
2022/01/02 07:19:17;;;;;;;5.90;3.30;;;5.20;99.90;;;;;;4933036;29;20125;-79
2022/01/02 07:21:44;;;;;;;6.53;3.17;;;5.20;99.90;;;;;;4931837;29;20050;-79
2022/01/02 07:24:12;;;;;;;6.95;3.88;;;5.30;99.90;;;;;;4932793;29;20058;-79
2022/01/02 07:26:40;;;;;;;7.32;4.03;;;5.30;99.90;;;;;;4933070;29;20049;-80
2022/01/02 07:29:07;;;;;;;7.07;3.78;;;5.40;99.90;;;;;;4932628;29;20060;-81
2022/01/02 07:31:34;;;;;;;6.53;3.70;;;5.40;99.90;;;;;;4933032;29;20375;-81
2022/01/02 07:34:01;;;;;;;6.03;3.40;;;5.50;99.90;;;;;;4932811;29;20051;-80
2022/01/02 07:36:28;;;;;;;7.07;3.60;;;5.50;99.90;;;;;;4932560;29;20039;-83
2022/01/02 07:38:56;;;;;;;6.95;3.65;;;5.70;99.90;;;;;;4932886;29;20488;-80
2022/01/02 07:41:24;;;;;;;7.55;3.80;;;5.80;99.90;;;;;;4915778;29;20044;-80
2022/01/02 07:43:53;;;;;;;6.50;3.83;;;6.00;99.90;;;;;;4932408;29;20043;-80
2022/01/02 07:46:20;;;;;;;6.70;3.42;;;6.10;99.90;;;;;;4932294;29;20052;-80
2022/01/02 07:48:48;;;;;;;6.72;3.60;;;6.20;99.90;;;;;;4932933;29;20065;-81
2022/01/02 07:51:15;;;;;;;6.30;3.70;;;6.30;99.90;;;;;;4932376;29;20184;-82
2022/01/02 07:53:42;;;;;;;6.10;3.65;;;6.40;99.90;;;;;;4929841;29;20051;-79
2022/01/02 07:56:10;;;;;;;6.72;3.38;;;6.40;99.90;;;;;;4931677;29;20571;-78
2022/01/02 07:58:37;;;;;;;5.18;2.80;;;6.50;99.90;;;;;;4930364;29;20471;-79
2022/01/02 08:01:05;;;;;;;6.80;3.70;;;6.60;99.90;;;;;;4931243;29;20055;-78
2022/01/02 08:03:32;;;;;;;6.20;3.58;;;6.60;99.90;;;;;;4926517;29;20058;-79
2022/01/02 08:06:00;;;;;;;6.28;3.60;;;6.60;99.90;;;;;;4931857;29;20048;-79
2022/01/02 08:08:27;;;;;;;5.72;3.25;;;6.60;99.90;;;;;;4931718;29;20044;-78
2022/01/02 08:10:54;;;;;;;6.00;3.03;;;6.60;99.90;;;;;;4932023;29;20051;-78
2022/01/02 08:13:21;;;;;;;6.05;3.38;;;6.60;99.90;;;;;;4930709;29;20052;-80
2022/01/02 08:15:49;;;;;;;6.07;3.25;;;6.60;99.90;;;;;;4930730;29;20051;-80
2022/01/02 08:18:18;;;;;;;5.90;3.40;;;6.70;99.90;;;;;;4927233;29;20047;-78
2022/01/02 08:20:45;;;;;;;6.47;3.75;;;6.70;99.90;;;;;;4931816;29;20040;-78
2022/01/02 08:23:13;;;;;;;9.95;5.18;;;6.80;99.90;;;;;;4930426;29;20051;-78
2022/01/02 08:25:40;;;;;;;13.80;6.47;;;6.80;99.90;;;;;;4931751;29;20052;-80
2022/01/02 08:28:07;;;;;;;14.02;7.15;;;6.90;99.90;;;;;;4929375;29;20053;-80
2022/01/02 08:30:35;;;;;;;15.35;7.32;;;6.90;99.90;;;;;;4931598;29;20490;-80
2022/01/02 08:33:02;;;;;;;12.23;5.90;;;6.90;99.90;;;;;;4931819;29;20059;-81
2022/01/02 08:35:30;;;;;;;9.73;4.63;;;6.90;99.90;;;;;;4925269;29;20051;-81
2022/01/02 08:37:57;;;;;;;8.95;4.18;;;7.00;99.90;;;;;;4931820;29;20541;-82
2022/01/02 08:40:24;;;;;;;6.25;3.60;;;7.00;99.90;;;;;;4931827;29;20051;-80
2022/01/02 08:42:51;;;;;;;6.22;3.35;;;7.00;99.90;;;;;;4931832;29;20499;-80
2022/01/02 08:45:18;;;;;;;6.57;3.30;;;7.10;99.90;;;;;;4931685;29;20055;-81
2022/01/02 08:47:46;;;;;;;8.90;4.55;;;7.10;99.90;;;;;;4931486;29;20052;-81
2022/01/02 08:50:13;;;;;;;8.93;4.35;;;7.20;99.90;;;;;;4931873;29;20051;-81
2022/01/02 08:52:41;;;;;;;9.73;5.28;;;7.20;99.90;;;;;;4931296;29;20520;-81
2022/01/02 08:55:09;;;;;;;8.73;4.85;;;7.30;99.90;;;;;;4931894;29;20408;-85
2022/01/02 08:57:38;;;;;;;9.02;4.93;;;7.30;99.90;;;;;;4931881;29;20432;-85
2022/01/02 09:00:07;;;;;;;6.22;3.75;;;7.40;99.90;;;;;;4931431;29;20552;-85
2022/01/02 09:02:34;;;;;;;7.00;3.78;;;7.40;99.90;;;;;;4931765;29;20143;-83
2022/01/02 09:05:02;;;;;;;6.35;3.50;;;7.40;99.90;;;;;;4928887;29;20052;-82
2022/01/02 09:07:29;;;;;;;6.63;3.85;;;7.50;99.90;;;;;;4931509;29;20052;-82
2022/01/02 09:09:57;;;;;;;7.85;4.13;;;7.50;99.90;;;;;;4931473;29;20044;-81
2022/01/02 09:12:24;;;;;;;6.75;3.72;;;7.50;99.90;;;;;;4931337;29;20103;-81
2022/01/02 09:14:51;;;;;;;8.48;4.22;;;7.60;99.90;;;;;;4931960;29;20083;-81
2022/01/02 09:17:19;;;;;;;8.23;4.18;;;7.60;99.90;;;;;;4931984;29;20138;-81
2022/01/02 09:19:46;;;;;;;7.32;4.00;;;7.60;99.90;;;;;;4931901;29;20094;-81
2022/01/02 09:22:15;;;;;;;8.32;4.53;;;7.60;99.90;;;;;;4930720;29;20063;-82
2022/01/02 09:24:42;;;;;;;8.70;4.55;;;7.70;99.90;;;;;;4931758;29;20382;-82
2022/01/02 09:27:11;;;;;;;9.07;5.13;;;7.80;99.90;;;;;;4931879;29;20058;-82
2022/01/02 09:29:38;;;;;;;9.32;5.32;;;7.80;99.90;;;;;;4934635;29;20143;-82
2022/01/02 09:32:05;;;;;;;9.90;5.47;;;7.90;99.90;;;;;;4934802;29;20075;-82
2022/01/02 09:34:32;;;;;;;10.35;5.45;;;8.00;99.90;;;;;;4934714;29;20115;-80
2022/01/02 09:36:59;;;;;;;8.85;5.10;;;8.00;99.90;;;;;;4935213;29;20537;-80
2022/01/02 09:39:27;;;;;;;12.63;7.15;;;8.10;99.90;;;;;;4934619;29;20075;-82
2022/01/02 09:41:54;;;;;;;11.82;6.55;;;8.10;99.90;;;;;;4934571;29;20127;-81
2022/01/02 09:44:23;;;;;;;10.70;5.47;;;8.10;99.90;;;;;;4934548;29;20102;-81
2022/01/02 09:46:54;;;;;;;8.15;4.43;;;8.20;99.90;;;;;;4934711;29;20071;-82
2022/01/02 09:49:22;;;;;;;7.80;4.30;;;8.20;99.90;;;;;;4934024;29;20130;-84
2022/01/02 09:51:49;;;;;;;7.53;3.67;;;8.30;99.90;;;;;;4934806;29;20151;-80
2022/01/02 09:54:17;;;;;;;5.47;2.85;;;8.30;99.90;;;;;;4934537;29;20074;-81
2022/01/02 09:56:44;;;;;;;5.35;3.08;;;8.30;99.90;;;;;;4934745;29;20071;-82
2022/01/02 09:59:11;;;;;;;5.60;2.92;;;8.40;99.90;;;;;;4934157;29;20055;-82
2022/01/02 10:01:39;;;;;;;4.95;2.53;;;8.40;99.90;;;;;;4934405;29;20056;-83
2022/01/02 10:04:07;;;;;;;5.95;3.13;;;8.50;99.90;;;;;;4934449;29;20062;-82
2022/01/02 10:06:46;;;;;;;4.63;2.63;;;8.50;99.90;;;;;;4934727;29;20052;-82
2022/01/02 10:09:29;;;;;;;5.05;2.70;;;8.60;99.90;;;;;;4934606;29;20134;-82
2022/01/02 10:12:21;;;;;;;5.50;3.00;;;8.70;99.90;;;;;;4934081;29;20044;-82
2022/01/02 10:15:20;;;;;;;5.50;2.83;;;8.80;99.90;;;;;;4929826;29;20052;-83
2022/01/02 10:18:04;;;;;;;5.50;2.90;;;8.80;99.90;;;;;;4934214;29;20486;-83
2022/01/02 10:20:38;;;;;;;7.22;3.20;;;8.90;99.90;;;;;;4933067;29;20126;-87
2022/01/02 10:23:16;;;;;;;6.40;3.10;;;9.00;99.80;;;;;;4934207;29;20103;-82
2022/01/02 10:25:52;;;;;;;5.63;2.88;;;9.00;99.70;;;;;;4932671;29;20118;-81
2022/01/02 10:28:32;;;;;;;6.32;3.13;;;9.10;99.50;;;;;;4924136;29;20827;-79
2022/01/02 10:31:07;;;;;;;5.22;2.80;;;9.10;99.40;;;;;;4933541;29;20115;-80
2022/01/02 10:33:54;;;;;;;5.88;3.40;;;9.20;99.30;;;;;;4932512;29;20047;-79
2022/01/02 10:36:34;;;;;;;5.65;3.20;;;9.20;99.40;;;;;;4933187;29;20412;-81
2022/01/02 10:39:13;;;;;;;6.40;2.67;;;9.20;99.30;;;;;;4928739;29;20458;-83
2022/01/02 10:41:45;;;;;;;7.13;3.17;;;9.20;99.50;;;;;;4927547;29;20151;-84
2022/01/02 10:44:26;;;;;;;6.07;2.72;;;9.30;99.40;;;;;;4933706;29;20420;-84
2022/01/02 10:47:14;;;;;;;5.85;3.40;;;9.30;99.10;;;;;;4929916;29;20051;-82
2022/01/02 10:49:54;;;;;;;5.10;2.50;;;9.30;98.90;;;;;;4928183;29;20481;-83
2022/01/02 10:52:24;;;;;;;6.25;3.03;;;9.30;98.70;;;;;;4933282;29;20792;-84
2022/01/02 10:54:52;;;;;;;4.72;2.70;;;9.30;98.50;;;;;;4933898;29;20044;-84
2022/01/02 10:57:20;;;;;;;6.18;2.90;;;9.30;98.40;;;;;;4933233;29;20066;-84
2022/01/02 10:59:47;;;;;;;5.18;2.60;;;9.40;98.30;;;;;;4933214;29;20052;-84
2022/01/02 11:02:16;;;;;;;5.15;2.80;;;9.40;98.30;;;;;;4931413;29;20142;-82
2022/01/02 11:04:50;;;;;;;5.55;2.42;;;9.50;98.30;;;;;;4914970;29;20393;-80
2022/01/02 11:07:23;;;;;;;5.35;2.95;;;9.50;98.20;;;;;;4933189;29;20051;-81
2022/01/02 11:09:54;;;;;;;5.82;2.78;;;9.60;97.80;;;;;;4933279;29;20050;-81
2022/01/02 11:12:22;;;;;;;4.68;2.45;;;9.60;97.90;;;;;;4933388;29;20056;-81
2022/01/02 11:14:51;;;;;;;5.72;3.03;;;9.70;97.60;;;;;;4933326;29;20055;-81
2022/01/02 11:17:18;;;;;;;5.30;2.60;;;9.70;97.70;;;;;;4933168;29;20062;-81
2022/01/02 11:19:46;;;;;;;4.70;2.60;;;9.70;97.50;;;;;;4933128;29;20154;-82
2022/01/02 11:22:33;;;;;;;5.40;2.80;;;9.80;97.50;;;;;;4932565;29;20048;-81
2022/01/02 11:25:12;;;;;;;5.22;2.47;;;9.80;96.90;;;;;;4933454;29;20056;-81
2022/01/02 11:27:45;;;;;;;5.15;2.70;;;9.90;96.70;;;;;;4927182;29;20556;-82
2022/01/02 11:30:42;;;;;;;5.82;2.35;;;9.90;96.50;;;;;;4915985;29;20497;-81
2022/01/02 11:33:13;;;;;;;4.85;2.47;;;10.00;96.10;;;;;;4932352;29;20133;-81
2022/01/02 11:35:44;;;;;;;3.95;2.25;;;10.10;95.60;;;;;;4932837;29;20047;-81
2022/01/02 11:38:13;;;;;;;6.38;2.70;;;10.10;95.20;;;;;;4933168;29;20131;-82
2022/01/02 11:40:46;;;;;;;4.65;2.60;;;10.20;95.10;;;;;;4933074;29;20051;-82
2022/01/02 11:43:53;;;;;;;5.43;2.50;;;10.30;94.60;;;;;;4928038;29;20043;-83
2022/01/02 11:46:25;;;;;;;5.00;2.80;;;10.40;94.60;;;;;;4932220;29;20055;-84
2022/01/02 11:49:19;;;;;;;5.60;2.65;;;10.50;94.20;;;;;;4932098;29;20134;-85
2022/01/02 11:52:13;;;;;;;5.03;2.60;;;10.60;94.00;;;;;;4931717;29;20048;-85
2022/01/02 11:54:55;;;;;;;5.97;2.97;;;10.70;93.70;;;;;;4932143;29;20047;-85
2022/01/02 11:58:04;;;;;;;5.15;2.50;;;10.80;93.50;;;;;;4932011;29;20055;-88
2022/01/02 12:00:44;;;;;;;6.20;2.55;;;10.90;93.10;;;;;;4924777;29;20493;-84
2022/01/02 12:03:52;;;;;;;5.07;2.50;;;10.90;92.90;;;;;;4931495;29;20043;-84
2022/01/02 12:06:23;;;;;;;5.45;2.80;;;11.00;92.70;;;;;;4931168;29;20138;-85
2022/01/02 12:08:51;;;;;;;5.53;2.60;;;11.00;92.30;;;;;;4932296;29;20134;-86
2022/01/02 12:11:44;;;;;;;4.70;2.17;;;11.10;92.20;;;;;;4932736;29;20059;-86
2022/01/02 12:14:22;;;;;;;4.80;2.30;;;11.10;92.00;;;;;;4932778;29;20139;-87
2022/01/02 12:17:00;;;;;;;4.72;2.20;;;11.20;91.70;;;;;;4932114;29;20047;-87
2022/01/02 12:19:28;;;;;;;5.00;2.47;;;11.30;91.50;;;;;;4930453;29;20532;-91
2022/01/02 12:22:16;;;;;;;4.70;2.67;;;11.40;91.30;;;;;;4926876;29;20054;-91
2022/01/02 12:24:44;;;;;;;5.20;2.50;;;11.60;91.10;;;;;;4928523;29;20434;-91
2022/01/02 12:27:15;;;;;;;3.97;2.08;;;11.70;90.70;;;;;;4934685;29;20066;-90
2022/01/02 12:29:43;;;;;;;3.63;1.90;;;11.90;90.10;;;;;;4934708;29;20130;-89
2022/01/02 12:32:11;;;;;;;3.97;2.10;;;12.00;88.90;;;;;;4934453;29;20142;-88
2022/01/02 12:34:40;;;;;;;5.65;2.33;;;12.10;87.70;;;;;;4934228;29;20486;-89
2022/01/02 12:37:07;;;;;;;3.75;1.80;;;12.20;86.10;;;;;;4933709;29;20417;-88
2022/01/02 12:39:37;;;;;;;3.40;1.70;;;12.40;85.40;;;;;;4933653;29;20565;-89
2022/01/02 12:42:08;;;;;;;3.38;1.70;;;12.60;83.20;;;;;;4933699;29;20043;-89
2022/01/02 12:44:38;;;;;;;4.75;2.00;;;12.70;81.80;;;;;;4933009;29;20044;-88
2022/01/02 12:47:07;;;;;;;5.68;2.20;;;12.80;80.80;;;;;;4931034;29;20076;-92
2022/01/02 12:49:36;;;;;;;3.38;1.80;;;12.90;79.00;;;;;;4933533;29;20464;-87
2022/01/02 12:52:06;;;;;;;4.85;1.73;;;13.00;78.70;;;;;;4931935;29;20060;-89
2022/01/02 12:54:38;;;;;;;3.97;1.80;;;13.10;78.30;;;;;;4931992;29;20051;-90
2022/01/02 12:57:08;;;;;;;4.57;1.90;;;13.20;77.40;;;;;;4929562;29;20445;-92
2022/01/02 12:59:38;;;;;;;3.80;1.80;;;13.30;76.70;;;;;;4933665;29;20052;-90
2022/01/02 13:02:07;;;;;;;3.75;1.98;;;13.40;75.90;;;;;;4934090;29;20153;-89
2022/01/02 13:04:38;;;;;;;3.58;1.83;;;13.50;74.90;;;;;;4937681;29;20123;-89
2022/01/02 13:07:12;;;;;;;4.93;1.80;;;13.60;74.00;;;;;;4940928;29;20050;-89
2022/01/02 13:09:43;;;;;;;4.28;1.80;;;13.70;73.40;;;;;;4940522;29;20051;-89
2022/01/02 13:12:13;;;;;;;3.60;1.70;;;13.80;72.30;;;;;;4941006;29;20118;-88
2022/01/02 13:14:44;;;;;;;4.07;1.73;;;14.40;71.40;;;;;;4941226;29;20059;-88
2022/01/02 13:17:16;;;;;;;3.25;1.40;;;15.40;69.00;;;;;;4936718;29;20048;-88
2022/01/02 13:19:47;;;;;;;4.70;1.50;;;16.50;68.00;;;;;;4939961;29;20040;-90
2022/01/02 13:22:21;;;;;;;3.75;1.90;;;16.90;61.30;;;;;;4939958;29;20058;-89
2022/01/02 13:24:50;;;;;;;4.07;1.85;;;17.20;60.10;;;;;;4935639;29;20082;-88
2022/01/02 13:27:18;;;;;;;3.47;1.60;;;17.40;59.10;;;;;;4936189;29;20082;-88
2022/01/02 13:29:58;;;;;;;3.83;1.70;;;17.80;70.60;;;;;;4935604;29;20556;-87
2022/01/02 13:32:26;;;;;;;3.35;1.52;;;18.40;66.10;;;;;;4934816;29;20485;-86
2022/01/02 13:35:07;;;;;;;3.72;1.77;;;18.90;60.00;;;;;;4935077;29;20048;-86
2022/01/02 13:37:38;;;;;;;3.72;1.80;;;19.30;63.00;;;;;;4929009;29;20123;-87
2022/01/02 13:40:09;;;;;;;3.95;1.90;;;20.10;67.50;;;;;;4934767;29;20130;-86
2022/01/02 13:42:41;;;;;;;5.00;1.98;;;20.30;69.40;;;;;;4934608;29;20044;-86
2022/01/02 13:45:18;;;;;;;3.25;1.50;;;21.00;68.00;;;;;;4935573;29;20048;-88
2022/01/02 13:47:46;;;;;;;5.38;1.70;;;21.60;69.20;;;;;;4936047;29;20126;-87
2022/01/02 13:50:33;;;;;;;2.95;1.50;;;23.50;49.20;;;;;;4935949;29;20106;-89
2022/01/02 13:53:03;;;;;;;4.18;1.50;;;22.20;47.20;;;;;;4936005;29;20051;-85
2022/01/02 13:55:34;;;;;;;3.60;1.92;;;22.70;47.20;;;;;;4936333;29;20461;-90
2022/01/02 13:58:03;;;;;;;5.15;2.10;;;22.70;46.00;;;;;;4936276;29;20139;-88
2022/01/02 14:00:32;;;;;;;4.30;1.98;;;22.80;45.40;;;;;;4911752;29;20402;-91
2022/01/02 14:03:00;;;;;;;4.68;2.00;;;22.70;45.80;;;;;;4934945;29;20413;-87
2022/01/02 14:05:46;;;;;;;4.50;1.80;;;22.70;46.00;;;;;;4927384;29;20490;-88
2022/01/02 14:08:15;;;;;;;4.32;1.98;;;23.10;46.10;;;;;;4934712;29;20063;-88
2022/01/02 14:10:44;;;;;;;3.50;1.90;;;23.60;44.80;;;;;;4935356;29;20058;-89
2022/01/02 14:13:14;;;;;;;4.22;1.80;;;23.60;44.40;;;;;;4932812;29;20064;-90
2022/01/02 14:15:59;;;;;;;3.60;1.90;;;23.30;44.70;;;;;;4932910;29;20058;-83
2022/01/02 14:18:29;;;;;;;4.03;2.15;;;23.00;45.40;;;;;;4934129;29;20048;-88
2022/01/02 14:21:00;;;;;;;4.50;2.00;;;22.90;45.30;;;;;;4934049;29;20493;-88
2022/01/02 14:23:30;;;;;;;4.50;2.10;;;22.60;45.60;;;;;;4934491;29;20617;-87
2022/01/02 14:25:57;;;;;;;5.25;2.40;;;22.40;45.90;;;;;;4934184;29;20052;-86
2022/01/02 14:28:25;;;;;;;4.30;2.03;;;22.30;45.90;;;;;;4933339;29;20131;-87
2022/01/02 14:30:54;;;;;;;3.85;1.85;;;21.90;45.70;;;;;;4933133;29;20056;-86
2022/01/02 14:33:22;;;;;;;4.53;1.92;;;21.50;45.80;;;;;;4933031;29;20058;-89
2022/01/02 14:35:49;;;;;;;4.38;1.88;;;21.30;46.30;;;;;;4935268;29;20043;-87
2022/01/02 14:38:16;;;;;;;4.35;1.83;;;21.10;46.60;;;;;;4933867;29;20056;-88
2022/01/02 14:40:43;;;;;;;4.95;2.08;;;20.70;47.00;;;;;;4933767;29;20079;-85
2022/01/02 14:43:10;;;;;;;3.92;2.00;;;20.30;47.70;;;;;;4933127;29;20550;-87
2022/01/02 14:45:38;;;;;;;4.57;2.20;;;19.80;49.10;;;;;;4933783;29;20047;-87
2022/01/02 14:48:06;;;;;;;3.45;1.92;;;19.20;49.30;;;;;;4932795;29;20087;-88
2022/01/02 14:50:34;;;;;;;4.53;2.00;;;18.70;50.30;;;;;;4933461;29;20079;-86
2022/01/02 14:53:01;;;;;;;4.10;2.30;;;18.30;51.30;;;;;;4931621;29;20051;-86
2022/01/02 14:55:28;;;;;;;4.88;2.20;;;18.00;52.30;;;;;;4932204;29;20505;-87
2022/01/02 14:57:55;;;;;;;4.00;2.10;;;17.70;53.80;;;;;;4932505;29;20048;-86
2022/01/02 15:00:25;;;;;;;4.60;2.25;;;17.50;56.80;;;;;;4933185;29;20102;-86
2022/01/02 15:02:54;;;;;;;3.83;1.85;;;17.50;57.90;;;;;;4932740;29;20054;-87
2022/01/02 15:05:23;;;;;;;4.53;1.98;;;17.40;59.20;;;;;;4933642;29;20048;-86
2022/01/02 15:07:52;;;;;;;5.32;2.50;;;17.20;58.80;;;;;;4933267;29;20044;-87
2022/01/02 15:10:19;;;;;;;5.65;2.45;;;17.10;62.00;;;;;;4932278;29;20070;-86
2022/01/02 15:12:46;;;;;;;4.80;2.15;;;16.60;56.30;;;;;;4928556;29;20050;-85
2022/01/02 15:15:14;;;;;;;5.13;2.30;;;16.50;62.30;;;;;;4932320;29;20083;-85
2022/01/02 15:17:44;;;;;;;4.18;2.20;;;;;;;;;;4933083;29;20576;-86
2022/01/02 15:20:11;;;;;;;4.68;2.35;;;15.90;57.60;;;;;;4933408;29;20055;-88
2022/01/02 15:22:40;;;;;;;4.68;2.20;;;15.70;58.90;;;;;;4934447;29;20056;-88
2022/01/02 15:25:09;;;;;;;4.95;2.17;;;15.50;59.60;;;;;;4933726;29;20099;-89
2022/01/02 15:27:39;;;;;;;4.18;2.10;;;15.30;60.30;;;;;;4934008;29;20044;-87
2022/01/02 15:30:08;;;;;;;4.70;2.30;;;15.10;61.00;;;;;;4923471;29;20052;-88
2022/01/02 15:32:39;;;;;;;6.70;2.50;;;14.90;61.80;;;;;;4933336;29;20166;-87
2022/01/02 15:35:11;;;;;;;5.20;2.50;;;14.80;62.60;;;;;;4932646;29;20492;-86
2022/01/02 15:37:40;;;;;;;5.05;2.47;;;14.70;63.40;;;;;;4927051;29;20046;-88
2022/01/02 15:40:08;;;;;;;4.63;2.20;;;14.50;64.70;;;;;;4933545;29;20481;-87
2022/01/02 15:42:35;;;;;;;4.90;2.17;;;14.40;65.10;;;;;;4934266;29;20102;-87
2022/01/02 15:45:03;;;;;;;5.72;2.45;;;14.30;66.00;;;;;;4934370;29;20053;-87
2022/01/02 15:47:31;;;;;;;4.75;2.03;;;14.20;66.90;;;;;;4924717;29;20051;-84
2022/01/02 15:49:58;;;;;;;4.15;2.00;;;14.10;67.80;;;;;;4931706;29;20071;-84
2022/01/02 15:52:25;;;;;;;5.28;2.38;;;14.00;68.60;;;;;;4931149;29;20083;-85
2022/01/02 15:54:53;;;;;;;5.45;2.50;;;13.90;69.50;;;;;;4929623;29;20482;-86
2022/01/02 15:57:20;;;;;;;5.55;2.40;;;13.80;70.20;;;;;;4932343;29;20056;-85
2022/01/02 15:59:47;;;;;;;4.88;2.38;;;13.80;71.20;;;;;;4932460;29;20044;-85
2022/01/02 16:02:14;;;;;;;4.82;2.10;;;13.80;72.00;;;;;;4931905;29;19929;-85
2022/01/02 16:04:41;;;;;;;5.88;2.78;;;13.60;72.60;;;;;;4932500;29;20481;-85
2022/01/02 16:07:08;;;;;;;5.07;2.50;;;13.70;73.40;;;;;;4932195;29;20505;-85
2022/01/02 16:09:36;;;;;;;5.80;2.70;;;13.60;74.00;;;;;;4932400;29;20046;-85
2022/01/02 16:12:05;;;;;;;5.55;2.67;;;13.50;74.60;;;;;;4931694;29;20408;-85
2022/01/02 16:14:32;;;;;;;5.28;2.60;;;13.60;75.10;;;;;;4925789;29;20051;-86
2022/01/02 16:16:59;;;;;;;4.78;2.60;;;13.50;75.50;;;;;;4932727;29;20058;-86
2022/01/02 16:19:26;;;;;;;4.30;2.28;;;13.50;75.80;;;;;;4931927;29;20043;-84
2022/01/02 16:21:55;;;;;;;5.78;2.20;;;13.50;76.20;;;;;;4931511;29;20058;-87
2022/01/02 16:24:24;;;;;;;4.15;2.10;;;13.50;76.50;;;;;;4931300;29;20047;-85
2022/01/02 16:26:52;;;;;;;5.05;2.45;;;13.50;76.80;;;;;;4932226;29;20054;-85
2022/01/02 16:29:25;;;;;;;4.88;2.30;;;13.50;77.20;;;;;;4931850;29;20088;-84
2022/01/02 16:31:53;;;;;;;4.97;2.17;;;13.50;77.50;;;;;;4931707;29;20047;-84
2022/01/02 16:34:20;;;;;;;6.05;2.30;;;13.50;78.30;;;;;;4931684;29;20497;-85
2022/01/02 16:36:47;;;;;;;4.88;2.15;;;13.40;78.00;;;;;;4929738;29;20039;-85
2022/01/02 16:39:15;;;;;;;4.38;2.17;;;13.40;78.20;;;;;;4931417;29;20134;-85
2022/01/02 16:41:42;;;;;;;4.97;2.40;;;13.40;78.60;;;;;;4931413;29;20668;-82
2022/01/02 16:44:09;;;;;;;12.20;6.55;;;13.40;78.80;;;;;;4931541;29;20130;-86
2022/01/02 16:46:38;;;;;;;18.88;9.38;;;13.40;79.00;;;;;;4931907;29;20055;-87
2022/01/02 16:49:07;;;;;;;20.02;9.60;;;13.40;79.50;;;;;;4928566;29;20044;-83
2022/01/02 16:51:35;;;;;;;10.13;4.70;;;13.30;79.70;;;;;;4930888;29;20044;-83
2022/01/02 16:54:03;;;;;;;6.70;2.95;;;13.30;80.10;;;;;;4929658;29;20052;-84
2022/01/02 16:56:31;;;;;;;5.13;2.78;;;13.30;80.40;;;;;;4923854;29;20044;-84
2022/01/02 16:58:58;;;;;;;4.93;2.20;;;13.20;80.70;;;;;;4930976;29;20485;-85
2022/01/02 17:01:25;;;;;;;7.78;2.40;;;13.20;81.10;;;;;;4930290;29;20066;-85
2022/01/02 17:03:54;;;;;;;5.25;2.42;;;13.20;81.40;;;;;;4931383;29;20052;-84
2022/01/02 17:06:21;;;;;;;4.25;1.98;;;13.20;81.80;;;;;;4915511;29;20533;-85
2022/01/02 17:08:48;;;;;;;5.90;2.30;;;13.10;82.00;;;;;;4927762;29;20382;-85
2022/01/02 17:11:15;;;;;;;6.80;2.25;;;13.10;82.30;;;;;;4928017;29;20058;-82
2022/01/02 17:13:42;;;;;;;4.22;2.00;;;13.10;82.60;;;;;;4931144;29;20039;-83
2022/01/02 17:16:09;;;;;;;4.88;2.45;;;13.10;83.50;;;;;;4930397;29;20079;-84
2022/01/02 17:18:37;;;;;;;5.70;2.30;;;13.10;83.50;;;;;;4930081;29;20050;-83
2022/01/02 17:21:05;;;;;;;6.07;3.03;;;13.10;83.70;;;;;;4929738;29;20465;-83
2022/01/02 17:23:32;;;;;;;8.77;4.80;;;13.10;83.80;;;;;;4930958;29;20039;-82
2022/01/02 17:25:59;;;;;;;4.72;2.40;;;13.10;83.80;;;;;;4930192;29;20048;-84
2022/01/02 17:28:26;;;;;;;5.57;2.30;;;13.10;83.70;;;;;;4930104;29;20044;-84
2022/01/02 17:30:54;;;;;;;5.82;2.40;;;13.10;83.80;;;;;;4913349;29;20158;-84
2022/01/02 17:33:21;;;;;;;15.32;7.50;;;13.10;84.00;;;;;;4929701;29;20047;-83
2022/01/02 17:35:48;;;;;;;18.23;8.45;;;13.10;84.00;;;;;;4913877;29;20062;-83
2022/01/02 17:38:17;;;;;;;7.70;3.50;;;13.10;84.10;;;;;;4930296;29;20075;-84
2022/01/02 17:40:45;;;;;;;7.15;2.40;;;13.10;84.20;;;;;;4929267;29;20086;-84
2022/01/02 17:43:12;;;;;;;5.22;2.45;;;13.10;84.20;;;;;;4929987;29;20086;-83
2022/01/02 17:45:39;;;;;;;8.10;2.92;;;13.00;84.30;;;;;;4930190;29;20511;-82
2022/01/02 17:48:07;;;;;;;5.50;2.50;;;13.00;84.50;;;;;;4929792;29;20075;-83
2022/01/02 17:50:35;;;;;;;5.60;2.60;;;13.00;84.80;;;;;;4933593;29;20123;-82
2022/01/02 17:53:02;;;;;;;6.03;2.80;;;13.00;84.90;;;;;;4934342;29;20050;-85
2022/01/02 17:55:31;;;;;;;6.35;3.15;;;13.00;85.00;;;;;;4933480;29;20134;-84
2022/01/02 17:57:58;;;;;;;6.88;3.10;;;13.00;85.00;;;;;;4934832;29;20052;-90
2022/01/02 18:00:25;;;;;;;6.03;2.70;;;13.00;85.10;;;;;;4932802;29;20567;-84
2022/01/02 18:02:53;;;;;;;5.28;2.70;;;13.00;85.40;;;;;;4933335;29;20064;-84
2022/01/02 18:05:20;;;;;;;8.23;3.13;;;13.00;85.50;;;;;;4933219;29;20138;-85
2022/01/02 18:07:47;;;;;;;6.45;3.00;;;13.00;85.70;;;;;;4933486;29;20139;-84
2022/01/02 18:10:17;;;;;;;7.18;2.85;;;12.90;85.80;;;;;;4933513;29;20048;-85
2022/01/02 18:12:46;;;;;;;6.95;3.00;;;12.90;86.00;;;;;;4933238;29;20493;-84
2022/01/02 18:15:17;;;;;;;5.47;2.75;;;12.80;86.10;;;;;;4932840;29;20059;-84
2022/01/02 18:17:49;;;;;;;7.00;3.13;;;12.90;86.30;;;;;;4933533;29;20082;-84
2022/01/02 18:20:18;;;;;;;6.25;2.65;;;12.80;86.40;;;;;;4932615;29;20332;-83
2022/01/02 18:22:45;;;;;;;6.68;2.97;;;12.80;86.40;;;;;;4933117;29;20077;-83
2022/01/02 18:25:18;;;;;;;7.03;2.50;;;12.80;86.70;;;;;;4933315;29;20470;-83
2022/01/02 18:27:47;;;;;;;5.95;3.08;;;12.70;86.80;;;;;;4933479;29;20051;-83
2022/01/02 18:30:15;;;;;;;7.40;2.92;;;12.80;87.10;;;;;;4933305;29;20052;-82
2022/01/02 18:32:42;;;;;;;6.68;2.72;;;12.70;87.30;;;;;;4933582;29;20047;-84
2022/01/02 18:35:11;;;;;;;6.68;2.85;;;12.70;87.30;;;;;;4933079;29;20082;-84
2022/01/02 18:37:40;;;;;;;5.20;2.58;;;12.70;87.60;;;;;;4933264;29;20047;-83
2022/01/02 18:40:13;;;;;;;7.47;2.70;;;12.70;87.60;;;;;;4931505;29;20051;-84
2022/01/02 18:42:41;;;;;;;7.45;2.60;;;12.70;87.80;;;;;;4933235;29;20426;-83
2022/01/02 18:45:10;;;;;;;7.00;3.17;;;12.60;87.90;;;;;;4933056;29;20138;-84
2022/01/02 18:47:38;;;;;;;7.50;2.90;;;12.70;88.10;;;;;;4933397;29;20396;-83
2022/01/02 18:50:08;;;;;;;7.65;3.80;;;12.60;88.20;;;;;;4913235;29;20070;-81
2022/01/02 18:52:36;;;;;;;7.55;3.60;;;12.60;88.40;;;;;;4932566;29;20079;-80
2022/01/02 18:55:06;;;;;;;8.23;3.40;;;12.50;88.60;;;;;;4933079;29;20476;-81
2022/01/02 18:57:34;;;;;;;6.93;3.42;;;12.50;88.90;;;;;;4932922;29;20493;-80
2022/01/02 19:00:01;;;;;;;7.00;2.83;;;12.40;89.00;;;;;;4931447;29;20058;-82
2022/01/02 19:02:29;;;;;;;6.68;3.45;;;12.40;89.90;;;;;;4932364;29;20135;-81
2022/01/02 19:04:57;;;;;;;6.32;3.28;;;12.30;89.70;;;;;;4932650;29;20044;-80